sensor_id;sensor_type;location;lat;lon;timestamp;P1;durP1;ratioP1;P2;durP2;ratioP2
10191;SDS011;17580;50.850;4.504;2023-07-20T00:01:31;2.53;;;1.77;;
10191;SDS011;17580;50.850;4.504;2023-07-20T00:03:58;2.03;;;1.83;;
10191;SDS011;17580;50.850;4.504;2023-07-20T00:06:25;2.43;;;2.10;;
10191;SDS011;17580;50.850;4.504;2023-07-20T00:08:55;2.30;;;1.60;;
10191;SDS011;17580;50.850;4.504;2023-07-20T00:11:25;2.07;;;1.90;;
10191;SDS011;17580;50.850;4.504;2023-07-20T00:13:53;1.83;;;1.73;;
10191;SDS011;17580;50.850;4.504;2023-07-20T00:16:20;2.00;;;1.90;;
10191;SDS011;17580;50.850;4.504;2023-07-20T00:18:47;2.27;;;2.00;;
10191;SDS011;17580;50.850;4.504;2023-07-20T00:21:14;4.67;;;2.50;;
10191;SDS011;17580;50.850;4.504;2023-07-20T00:23:42;2.37;;;2.13;;
10191;SDS011;17580;50.850;4.504;2023-07-20T00:26:10;3.57;;;1.90;;
10191;SDS011;17580;50.850;4.504;2023-07-20T00:28:37;4.77;;;2.03;;
10191;SDS011;17580;50.850;4.504;2023-07-20T00:31:04;3.27;;;2.30;;
10191;SDS011;17580;50.850;4.504;2023-07-20T00:33:31;4.13;;;2.07;;
10191;SDS011;17580;50.850;4.504;2023-07-20T00:35:58;3.53;;;2.10;;
10191;SDS011;17580;50.850;4.504;2023-07-20T00:38:25;3.03;;;2.37;;
10191;SDS011;17580;50.850;4.504;2023-07-20T00:40:52;3.27;;;2.20;;
10191;SDS011;17580;50.850;4.504;2023-07-20T00:43:21;6.67;;;2.37;;
10191;SDS011;17580;50.850;4.504;2023-07-20T00:45:48;3.03;;;2.80;;
10191;SDS011;17580;50.850;4.504;2023-07-20T00:48:15;4.07;;;2.53;;
10191;SDS011;17580;50.850;4.504;2023-07-20T00:50:42;2.40;;;2.20;;
10191;SDS011;17580;50.850;4.504;2023-07-20T00:53:10;4.20;;;2.43;;
10191;SDS011;17580;50.850;4.504;2023-07-20T00:55:37;3.63;;;2.50;;
10191;SDS011;17580;50.850;4.504;2023-07-20T00:58:04;2.60;;;2.40;;
10191;SDS011;17580;50.850;4.504;2023-07-20T01:00:33;5.77;;;2.63;;
10191;SDS011;17580;50.850;4.504;2023-07-20T01:03:00;2.47;;;2.10;;
10191;SDS011;17580;50.850;4.504;2023-07-20T01:05:30;3.27;;;2.43;;
10191;SDS011;17580;50.850;4.504;2023-07-20T01:08:06;3.80;;;2.40;;
10191;SDS011;17580;50.850;4.504;2023-07-20T01:10:39;4.40;;;2.50;;
10191;SDS011;17580;50.850;4.504;2023-07-20T01:13:08;3.33;;;2.27;;
10191;SDS011;17580;50.850;4.504;2023-07-20T01:15:37;4.30;;;2.80;;
10191;SDS011;17580;50.850;4.504;2023-07-20T01:18:04;2.60;;;2.30;;
10191;SDS011;17580;50.850;4.504;2023-07-20T01:20:32;3.90;;;2.40;;
10191;SDS011;17580;50.850;4.504;2023-07-20T01:26:11;4.23;;;2.33;;
10191;SDS011;17580;50.850;4.504;2023-07-20T01:31:55;8.93;;;3.00;;
10191;SDS011;17580;50.850;4.504;2023-07-20T01:34:23;6.03;;;3.33;;
10191;SDS011;17580;50.850;4.504;2023-07-20T01:36:52;6.33;;;3.00;;
10191;SDS011;17580;50.850;4.504;2023-07-20T01:39:21;5.23;;;2.93;;
10191;SDS011;17580;50.850;4.504;2023-07-20T01:41:49;3.53;;;2.37;;
10191;SDS011;17580;50.850;4.504;2023-07-20T01:44:16;4.20;;;3.13;;
10191;SDS011;17580;50.850;4.504;2023-07-20T01:46:43;4.27;;;2.87;;
10191;SDS011;17580;50.850;4.504;2023-07-20T01:49:11;3.50;;;3.00;;
10191;SDS011;17580;50.850;4.504;2023-07-20T01:51:38;5.23;;;3.40;;
10191;SDS011;17580;50.850;4.504;2023-07-20T01:54:05;7.47;;;2.73;;
10191;SDS011;17580;50.850;4.504;2023-07-20T01:56:32;7.50;;;3.17;;
10191;SDS011;17580;50.850;4.504;2023-07-20T01:58:59;4.67;;;3.30;;
10191;SDS011;17580;50.850;4.504;2023-07-20T02:01:26;7.40;;;3.20;;
10191;SDS011;17580;50.850;4.504;2023-07-20T02:03:54;2.97;;;2.77;;
10191;SDS011;17580;50.850;4.504;2023-07-20T02:06:23;5.40;;;3.37;;
10191;SDS011;17580;50.850;4.504;2023-07-20T02:08:50;4.70;;;3.90;;
10191;SDS011;17580;50.850;4.504;2023-07-20T02:11:17;3.77;;;2.50;;
10191;SDS011;17580;50.850;4.504;2023-07-20T02:13:44;5.17;;;3.67;;
10191;SDS011;17580;50.850;4.504;2023-07-20T02:16:11;7.90;;;3.90;;
10191;SDS011;17580;50.850;4.504;2023-07-20T02:18:38;5.67;;;3.07;;
10191;SDS011;17580;50.850;4.504;2023-07-20T02:21:05;3.60;;;3.07;;
10191;SDS011;17580;50.850;4.504;2023-07-20T02:23:33;3.83;;;3.20;;
10191;SDS011;17580;50.850;4.504;2023-07-20T02:26:00;5.60;;;2.90;;
10191;SDS011;17580;50.850;4.504;2023-07-20T02:28:27;6.47;;;3.60;;
10191;SDS011;17580;50.850;4.504;2023-07-20T02:30:54;3.90;;;3.53;;
10191;SDS011;17580;50.850;4.504;2023-07-20T02:33:21;4.27;;;3.40;;
10191;SDS011;17580;50.850;4.504;2023-07-20T02:35:48;4.73;;;3.27;;
10191;SDS011;17580;50.850;4.504;2023-07-20T02:38:15;6.03;;;3.83;;
10191;SDS011;17580;50.850;4.504;2023-07-20T02:40:43;7.33;;;4.27;;
10191;SDS011;17580;50.850;4.504;2023-07-20T02:43:12;7.10;;;3.93;;
10191;SDS011;17580;50.850;4.504;2023-07-20T02:45:40;6.80;;;3.60;;
10191;SDS011;17580;50.850;4.504;2023-07-20T02:48:08;4.63;;;3.90;;
10191;SDS011;17580;50.850;4.504;2023-07-20T02:50:35;6.83;;;3.77;;
10191;SDS011;17580;50.850;4.504;2023-07-20T02:53:02;5.13;;;3.77;;
10191;SDS011;17580;50.850;4.504;2023-07-20T02:55:29;5.87;;;3.27;;
10191;SDS011;17580;50.850;4.504;2023-07-20T02:57:57;3.87;;;3.53;;
10191;SDS011;17580;50.850;4.504;2023-07-20T03:00:24;5.93;;;3.40;;
10191;SDS011;17580;50.850;4.504;2023-07-20T03:02:51;4.13;;;3.60;;
10191;SDS011;17580;50.850;4.504;2023-07-20T03:05:20;4.87;;;3.80;;
10191;SDS011;17580;50.850;4.504;2023-07-20T03:07:50;9.27;;;3.27;;
10191;SDS011;17580;50.850;4.504;2023-07-20T03:10:17;4.10;;;3.53;;
10191;SDS011;17580;50.850;4.504;2023-07-20T03:12:44;4.50;;;3.60;;
10191;SDS011;17580;50.850;4.504;2023-07-20T03:15:11;4.73;;;3.93;;
10191;SDS011;17580;50.850;4.504;2023-07-20T03:17:38;5.03;;;4.10;;
10191;SDS011;17580;50.850;4.504;2023-07-20T03:20:06;3.60;;;3.30;;
10191;SDS011;17580;50.850;4.504;2023-07-20T03:22:35;3.53;;;3.23;;
10191;SDS011;17580;50.850;4.504;2023-07-20T03:25:02;4.30;;;3.97;;
10191;SDS011;17580;50.850;4.504;2023-07-20T03:27:30;4.37;;;3.43;;
10191;SDS011;17580;50.850;4.504;2023-07-20T03:29:57;4.10;;;3.67;;
10191;SDS011;17580;50.850;4.504;2023-07-20T03:32:25;5.10;;;4.13;;
10191;SDS011;17580;50.850;4.504;2023-07-20T03:34:52;4.23;;;3.83;;
10191;SDS011;17580;50.850;4.504;2023-07-20T03:37:19;5.30;;;3.73;;
10191;SDS011;17580;50.850;4.504;2023-07-20T03:39:46;4.93;;;3.97;;
10191;SDS011;17580;50.850;4.504;2023-07-20T03:42:14;4.23;;;3.33;;
10191;SDS011;17580;50.850;4.504;2023-07-20T03:44:41;4.07;;;3.60;;
10191;SDS011;17580;50.850;4.504;2023-07-20T03:47:07;4.17;;;3.87;;
10191;SDS011;17580;50.850;4.504;2023-07-20T03:49:36;5.43;;;4.33;;
10191;SDS011;17580;50.850;4.504;2023-07-20T03:52:03;5.93;;;3.50;;
10191;SDS011;17580;50.850;4.504;2023-07-20T03:54:30;4.30;;;3.73;;
10191;SDS011;17580;50.850;4.504;2023-07-20T03:56:57;4.57;;;4.17;;
10191;SDS011;17580;50.850;4.504;2023-07-20T03:59:25;6.90;;;4.60;;
10191;SDS011;17580;50.850;4.504;2023-07-20T04:01:52;4.93;;;4.27;;
10191;SDS011;17580;50.850;4.504;2023-07-20T04:04:19;5.37;;;4.70;;
10191;SDS011;17580;50.850;4.504;2023-07-20T04:06:48;8.07;;;5.17;;
10191;SDS011;17580;50.850;4.504;2023-07-20T04:09:15;6.53;;;4.53;;
10191;SDS011;17580;50.850;4.504;2023-07-20T04:11:42;4.43;;;4.03;;
10191;SDS011;17580;50.850;4.504;2023-07-20T04:14:09;4.30;;;3.90;;
10191;SDS011;17580;50.850;4.504;2023-07-20T04:16:36;7.23;;;4.67;;
10191;SDS011;17580;50.850;4.504;2023-07-20T04:19:03;7.93;;;5.03;;
10191;SDS011;17580;50.850;4.504;2023-07-20T04:21:30;5.63;;;4.23;;
10191;SDS011;17580;50.850;4.504;2023-07-20T04:23:58;5.07;;;4.57;;
10191;SDS011;17580;50.850;4.504;2023-07-20T04:26:25;5.60;;;5.07;;
10191;SDS011;17580;50.850;4.504;2023-07-20T04:28:52;5.63;;;5.07;;
10191;SDS011;17580;50.850;4.504;2023-07-20T04:31:19;5.43;;;4.40;;
10191;SDS011;17580;50.850;4.504;2023-07-20T04:33:46;6.63;;;4.67;;
10191;SDS011;17580;50.850;4.504;2023-07-20T04:36:13;6.87;;;5.17;;
10191;SDS011;17580;50.850;4.504;2023-07-20T04:38:44;6.40;;;4.93;;
10191;SDS011;17580;50.850;4.504;2023-07-20T04:41:12;5.43;;;4.93;;
10191;SDS011;17580;50.850;4.504;2023-07-20T04:43:40;8.73;;;5.00;;
10191;SDS011;17580;50.850;4.504;2023-07-20T04:46:08;9.53;;;5.57;;
10191;SDS011;17580;50.850;4.504;2023-07-20T04:48:35;6.97;;;5.50;;
10191;SDS011;17580;50.850;4.504;2023-07-20T04:51:02;5.90;;;5.30;;
10191;SDS011;17580;50.850;4.504;2023-07-20T04:53:29;7.57;;;5.40;;
10191;SDS011;17580;50.850;4.504;2023-07-20T04:55:57;5.93;;;5.37;;
10191;SDS011;17580;50.850;4.504;2023-07-20T04:58:25;5.80;;;5.20;;
10191;SDS011;17580;50.850;4.504;2023-07-20T05:00:52;6.30;;;5.27;;
10191;SDS011;17580;50.850;4.504;2023-07-20T05:03:20;7.60;;;5.10;;
10191;SDS011;17580;50.850;4.504;2023-07-20T05:05:46;8.07;;;7.00;;
10191;SDS011;17580;50.850;4.504;2023-07-20T05:08:14;5.70;;;5.20;;
10191;SDS011;17580;50.850;4.504;2023-07-20T05:10:41;8.87;;;5.67;;
10191;SDS011;17580;50.850;4.504;2023-07-20T05:13:08;6.73;;;6.03;;
10191;SDS011;17580;50.850;4.504;2023-07-20T05:15:37;9.00;;;6.50;;
10191;SDS011;17580;50.850;4.504;2023-07-20T05:18:04;7.20;;;5.40;;
10191;SDS011;17580;50.850;4.504;2023-07-20T05:20:31;6.60;;;5.27;;
10191;SDS011;17580;50.850;4.504;2023-07-20T05:22:58;8.57;;;6.30;;
10191;SDS011;17580;50.850;4.504;2023-07-20T05:25:26;9.40;;;6.20;;
10191;SDS011;17580;50.850;4.504;2023-07-20T05:27:53;7.33;;;6.30;;
10191;SDS011;17580;50.850;4.504;2023-07-20T05:30:20;6.63;;;6.03;;
10191;SDS011;17580;50.850;4.504;2023-07-20T05:32:49;6.23;;;5.63;;
10191;SDS011;17580;50.850;4.504;2023-07-20T05:35:18;8.83;;;6.17;;
10191;SDS011;17580;50.850;4.504;2023-07-20T05:37:46;7.93;;;5.63;;
10191;SDS011;17580;50.850;4.504;2023-07-20T05:40:13;8.50;;;6.37;;
10191;SDS011;17580;50.850;4.504;2023-07-20T05:42:44;7.17;;;5.70;;
10191;SDS011;17580;50.850;4.504;2023-07-20T05:45:11;6.60;;;5.97;;
10191;SDS011;17580;50.850;4.504;2023-07-20T05:47:39;6.17;;;5.37;;
10191;SDS011;17580;50.850;4.504;2023-07-20T05:50:08;7.67;;;5.53;;
10191;SDS011;17580;50.850;4.504;2023-07-20T05:52:35;5.63;;;5.10;;
10191;SDS011;17580;50.850;4.504;2023-07-20T05:55:04;6.23;;;5.43;;
10191;SDS011;17580;50.850;4.504;2023-07-20T05:57:31;5.33;;;4.83;;
10191;SDS011;17580;50.850;4.504;2023-07-20T05:59:59;5.50;;;5.00;;
10191;SDS011;17580;50.850;4.504;2023-07-20T06:02:26;7.27;;;6.23;;
10191;SDS011;17580;50.850;4.504;2023-07-20T06:04:53;6.57;;;5.10;;
10191;SDS011;17580;50.850;4.504;2023-07-20T06:07:21;6.20;;;5.33;;
10191;SDS011;17580;50.850;4.504;2023-07-20T06:09:48;5.10;;;4.60;;
10191;SDS011;17580;50.850;4.504;2023-07-20T06:12:15;7.17;;;5.20;;
10191;SDS011;17580;50.850;4.504;2023-07-20T06:14:42;6.70;;;4.83;;
10191;SDS011;17580;50.850;4.504;2023-07-20T06:17:09;5.33;;;4.93;;
10191;SDS011;17580;50.850;4.504;2023-07-20T06:19:36;8.07;;;5.00;;
10191;SDS011;17580;50.850;4.504;2023-07-20T06:22:03;8.37;;;4.83;;
10191;SDS011;17580;50.850;4.504;2023-07-20T06:24:32;5.70;;;4.07;;
10191;SDS011;17580;50.850;4.504;2023-07-20T06:26:59;5.03;;;3.87;;
10191;SDS011;17580;50.850;4.504;2023-07-20T06:29:26;5.03;;;4.27;;
10191;SDS011;17580;50.850;4.504;2023-07-20T06:31:53;4.20;;;3.80;;
10191;SDS011;17580;50.850;4.504;2023-07-20T06:34:20;6.70;;;4.83;;
10191;SDS011;17580;50.850;4.504;2023-07-20T06:36:47;4.80;;;3.77;;
10191;SDS011;17580;50.850;4.504;2023-07-20T06:39:14;6.23;;;3.53;;
10191;SDS011;17580;50.850;4.504;2023-07-20T06:41:42;3.87;;;3.10;;
10191;SDS011;17580;50.850;4.504;2023-07-20T06:44:09;3.87;;;3.57;;
10191;SDS011;17580;50.850;4.504;2023-07-20T06:46:36;3.27;;;3.07;;
10191;SDS011;17580;50.850;4.504;2023-07-20T06:49:05;3.87;;;3.50;;
10191;SDS011;17580;50.850;4.504;2023-07-20T06:51:33;3.73;;;3.43;;
10191;SDS011;17580;50.850;4.504;2023-07-20T06:54:00;3.57;;;2.97;;
10191;SDS011;17580;50.850;4.504;2023-07-20T06:56:29;3.27;;;3.07;;
10191;SDS011;17580;50.850;4.504;2023-07-20T06:58:58;3.53;;;3.30;;
10191;SDS011;17580;50.850;4.504;2023-07-20T07:01:25;3.57;;;3.27;;
10191;SDS011;17580;50.850;4.504;2023-07-20T07:03:52;2.97;;;2.73;;
10191;SDS011;17580;50.850;4.504;2023-07-20T07:06:18;2.90;;;2.70;;
10191;SDS011;17580;50.850;4.504;2023-07-20T07:08:47;4.10;;;3.80;;
10191;SDS011;17580;50.850;4.504;2023-07-20T07:11:14;3.27;;;2.97;;
10191;SDS011;17580;50.850;4.504;2023-07-20T07:13:41;3.00;;;2.80;;
10191;SDS011;17580;50.850;4.504;2023-07-20T07:16:10;2.80;;;2.60;;
10191;SDS011;17580;50.850;4.504;2023-07-20T07:18:36;3.10;;;2.80;;
10191;SDS011;17580;50.850;4.504;2023-07-20T07:21:05;3.00;;;2.90;;
10191;SDS011;17580;50.850;4.504;2023-07-20T07:23:32;3.10;;;2.80;;
10191;SDS011;17580;50.850;4.504;2023-07-20T07:25:59;3.17;;;2.87;;
10191;SDS011;17580;50.850;4.504;2023-07-20T07:28:28;3.57;;;3.20;;
10191;SDS011;17580;50.850;4.504;2023-07-20T07:30:55;2.47;;;2.27;;
10191;SDS011;17580;50.850;4.504;2023-07-20T07:33:24;3.90;;;2.60;;
10191;SDS011;17580;50.850;4.504;2023-07-20T07:35:51;3.27;;;2.00;;
10191;SDS011;17580;50.850;4.504;2023-07-20T07:38:19;2.73;;;2.23;;
10191;SDS011;17580;50.850;4.504;2023-07-20T07:40:46;2.60;;;2.40;;
10191;SDS011;17580;50.850;4.504;2023-07-20T07:43:13;2.70;;;2.50;;
10191;SDS011;17580;50.850;4.504;2023-07-20T07:45:40;3.27;;;3.07;;
10191;SDS011;17580;50.850;4.504;2023-07-20T07:48:07;2.50;;;2.30;;
10191;SDS011;17580;50.850;4.504;2023-07-20T07:50:37;2.53;;;2.40;;
10191;SDS011;17580;50.850;4.504;2023-07-20T07:53:05;2.60;;;2.40;;
10191;SDS011;17580;50.850;4.504;2023-07-20T07:55:32;2.70;;;2.50;;
10191;SDS011;17580;50.850;4.504;2023-07-20T07:57:59;2.67;;;2.00;;
10191;SDS011;17580;50.850;4.504;2023-07-20T08:00:26;2.40;;;2.30;;
10191;SDS011;17580;50.850;4.504;2023-07-20T08:02:53;2.47;;;2.37;;
10191;SDS011;17580;50.850;4.504;2023-07-20T08:05:20;1.97;;;1.87;;
10191;SDS011;17580;50.850;4.504;2023-07-20T08:07:48;2.07;;;1.50;;
10191;SDS011;17580;50.850;4.504;2023-07-20T08:10:15;1.40;;;1.40;;
10191;SDS011;17580;50.850;4.504;2023-07-20T08:12:42;1.80;;;1.70;;
10191;SDS011;17580;50.850;4.504;2023-07-20T08:15:10;1.80;;;1.70;;
10191;SDS011;17580;50.850;4.504;2023-07-20T08:17:37;1.70;;;1.60;;
10191;SDS011;17580;50.850;4.504;2023-07-20T08:20:05;1.57;;;1.47;;
10191;SDS011;17580;50.850;4.504;2023-07-20T08:22:34;2.30;;;1.70;;
10191;SDS011;17580;50.850;4.504;2023-07-20T08:25:03;1.40;;;1.30;;
10191;SDS011;17580;50.850;4.504;2023-07-20T08:27:31;1.37;;;1.37;;
10191;SDS011;17580;50.850;4.504;2023-07-20T08:29:57;1.20;;;1.20;;
10191;SDS011;17580;50.850;4.504;2023-07-20T08:32:25;1.00;;;1.00;;
10191;SDS011;17580;50.850;4.504;2023-07-20T08:34:52;1.27;;;1.20;;
10191;SDS011;17580;50.850;4.504;2023-07-20T08:37:19;1.30;;;1.20;;
10191;SDS011;17580;50.850;4.504;2023-07-20T08:39:46;1.10;;;1.10;;
10191;SDS011;17580;50.850;4.504;2023-07-20T08:42:14;0.80;;;0.80;;
10191;SDS011;17580;50.850;4.504;2023-07-20T08:44:42;0.80;;;0.80;;
10191;SDS011;17580;50.850;4.504;2023-07-20T08:47:11;1.00;;;1.00;;
10191;SDS011;17580;50.850;4.504;2023-07-20T08:49:39;0.80;;;0.80;;
10191;SDS011;17580;50.850;4.504;2023-07-20T08:52:07;1.00;;;0.90;;
10191;SDS011;17580;50.850;4.504;2023-07-20T08:54:35;0.70;;;0.70;;
10191;SDS011;17580;50.850;4.504;2023-07-20T08:57:03;0.83;;;0.80;;
10191;SDS011;17580;50.850;4.504;2023-07-20T08:59:32;0.80;;;0.80;;
10191;SDS011;17580;50.850;4.504;2023-07-20T09:02:02;0.93;;;0.93;;
10191;SDS011;17580;50.850;4.504;2023-07-20T09:04:31;0.90;;;0.90;;
10191;SDS011;17580;50.850;4.504;2023-07-20T09:06:58;0.80;;;0.80;;
10191;SDS011;17580;50.850;4.504;2023-07-20T09:09:26;0.73;;;0.73;;
10191;SDS011;17580;50.850;4.504;2023-07-20T09:11:53;0.90;;;0.90;;
10191;SDS011;17580;50.850;4.504;2023-07-20T09:14:20;0.90;;;0.90;;
10191;SDS011;17580;50.850;4.504;2023-07-20T09:16:51;0.97;;;0.90;;
10191;SDS011;17580;50.850;4.504;2023-07-20T09:19:20;0.80;;;0.80;;
10191;SDS011;17580;50.850;4.504;2023-07-20T09:21:48;1.00;;;1.00;;
10191;SDS011;17580;50.850;4.504;2023-07-20T09:24:17;0.97;;;0.97;;
10191;SDS011;17580;50.850;4.504;2023-07-20T09:26:45;1.60;;;0.70;;
10191;SDS011;17580;50.850;4.504;2023-07-20T09:29:14;0.80;;;0.80;;
10191;SDS011;17580;50.850;4.504;2023-07-20T09:31:44;0.80;;;0.80;;
10191;SDS011;17580;50.850;4.504;2023-07-20T09:34:28;0.70;;;0.70;;
10191;SDS011;17580;50.850;4.504;2023-07-20T09:36:56;0.80;;;0.80;;
10191;SDS011;17580;50.850;4.504;2023-07-20T09:39:24;1.00;;;1.00;;
10191;SDS011;17580;50.850;4.504;2023-07-20T09:41:51;1.03;;;1.03;;
10191;SDS011;17580;50.850;4.504;2023-07-20T09:44:18;1.00;;;0.90;;
10191;SDS011;17580;50.850;4.504;2023-07-20T09:46:46;1.00;;;1.00;;
10191;SDS011;17580;50.850;4.504;2023-07-20T09:49:15;1.10;;;1.10;;
10191;SDS011;17580;50.850;4.504;2023-07-20T09:51:43;1.07;;;0.90;;
10191;SDS011;17580;50.850;4.504;2023-07-20T09:54:13;0.90;;;0.90;;
10191;SDS011;17580;50.850;4.504;2023-07-20T09:56:40;1.30;;;1.20;;
10191;SDS011;17580;50.850;4.504;2023-07-20T09:59:09;1.43;;;1.07;;
10191;SDS011;17580;50.850;4.504;2023-07-20T10:01:36;1.00;;;1.00;;
10191;SDS011;17580;50.850;4.504;2023-07-20T10:04:08;1.67;;;1.10;;
10191;SDS011;17580;50.850;4.504;2023-07-20T10:06:39;1.03;;;1.03;;
10191;SDS011;17580;50.850;4.504;2023-07-20T10:09:10;1.37;;;1.13;;
10191;SDS011;17580;50.850;4.504;2023-07-20T10:11:40;0.90;;;0.90;;
10191;SDS011;17580;50.850;4.504;2023-07-20T10:14:18;1.07;;;1.07;;
10191;SDS011;17580;50.850;4.504;2023-07-20T10:16:50;0.90;;;0.90;;
10191;SDS011;17580;50.850;4.504;2023-07-20T10:19:20;1.20;;;1.10;;
10191;SDS011;17580;50.850;4.504;2023-07-20T10:21:54;1.10;;;1.00;;
10191;SDS011;17580;50.850;4.504;2023-07-20T10:24:26;1.10;;;1.10;;
10191;SDS011;17580;50.850;4.504;2023-07-20T10:26:55;1.00;;;1.00;;
10191;SDS011;17580;50.850;4.504;2023-07-20T10:29:22;0.90;;;0.90;;
10191;SDS011;17580;50.850;4.504;2023-07-20T10:31:52;1.00;;;1.00;;
10191;SDS011;17580;50.850;4.504;2023-07-20T10:34:20;0.90;;;0.90;;
10191;SDS011;17580;50.850;4.504;2023-07-20T10:36:48;0.90;;;0.90;;
10191;SDS011;17580;50.850;4.504;2023-07-20T10:39:24;1.20;;;1.20;;
10191;SDS011;17580;50.850;4.504;2023-07-20T10:41:59;1.20;;;1.10;;
10191;SDS011;17580;50.850;4.504;2023-07-20T10:44:28;1.13;;;1.10;;
10191;SDS011;17580;50.850;4.504;2023-07-20T10:46:58;1.00;;;1.00;;
10191;SDS011;17580;50.850;4.504;2023-07-20T10:49:26;2.43;;;1.07;;
10191;SDS011;17580;50.850;4.504;2023-07-20T10:51:57;1.80;;;1.00;;
10191;SDS011;17580;50.850;4.504;2023-07-20T10:54:36;1.10;;;1.10;;
10191;SDS011;17580;50.850;4.504;2023-07-20T10:57:21;0.80;;;0.80;;
10191;SDS011;17580;50.850;4.504;2023-07-20T11:00:06;3.70;;;1.20;;
10191;SDS011;17580;50.850;4.504;2023-07-20T11:02:42;1.03;;;1.03;;
10191;SDS011;17580;50.850;4.504;2023-07-20T11:08:00;1.20;;;1.10;;
10191;SDS011;17580;50.850;4.504;2023-07-20T11:10:30;1.67;;;1.50;;
10191;SDS011;17580;50.850;4.504;2023-07-20T11:13:15;1.20;;;1.20;;
10191;SDS011;17580;50.850;4.504;2023-07-20T11:15:48;1.17;;;1.10;;
10191;SDS011;17580;50.850;4.504;2023-07-20T11:18:28;0.90;;;0.90;;
10191;SDS011;17580;50.850;4.504;2023-07-20T11:20:56;0.90;;;0.90;;
10191;SDS011;17580;50.850;4.504;2023-07-20T11:23:23;2.07;;;1.00;;
10191;SDS011;17580;50.850;4.504;2023-07-20T11:25:52;1.20;;;1.10;;
10191;SDS011;17580;50.850;4.504;2023-07-20T11:28:19;1.10;;;1.00;;
10191;SDS011;17580;50.850;4.504;2023-07-20T11:30:49;1.63;;;1.30;;
10191;SDS011;17580;50.850;4.504;2023-07-20T11:33:19;1.07;;;1.07;;
10191;SDS011;17580;50.850;4.504;2023-07-20T11:35:46;2.97;;;1.17;;
10191;SDS011;17580;50.850;4.504;2023-07-20T11:38:16;1.13;;;1.13;;
10191;SDS011;17580;50.850;4.504;2023-07-20T11:40:43;1.10;;;1.10;;
10191;SDS011;17580;50.850;4.504;2023-07-20T11:43:12;1.03;;;1.03;;
10191;SDS011;17580;50.850;4.504;2023-07-20T11:45:40;1.20;;;1.20;;
10191;SDS011;17580;50.850;4.504;2023-07-20T11:48:07;1.07;;;1.07;;
10191;SDS011;17580;50.850;4.504;2023-07-20T11:50:40;1.63;;;1.53;;
10191;SDS011;17580;50.850;4.504;2023-07-20T11:53:07;0.97;;;0.97;;
10191;SDS011;17580;50.850;4.504;2023-07-20T11:55:34;1.20;;;1.20;;
10191;SDS011;17580;50.850;4.504;2023-07-20T11:58:03;1.90;;;1.57;;
10191;SDS011;17580;50.850;4.504;2023-07-20T12:00:31;1.27;;;1.20;;
10191;SDS011;17580;50.850;4.504;2023-07-20T12:02:59;1.00;;;1.00;;
10191;SDS011;17580;50.850;4.504;2023-07-20T12:05:27;1.10;;;1.10;;
10191;SDS011;17580;50.850;4.504;2023-07-20T12:07:54;1.20;;;1.20;;
10191;SDS011;17580;50.850;4.504;2023-07-20T12:10:24;1.10;;;1.10;;
10191;SDS011;17580;50.850;4.504;2023-07-20T12:12:53;2.03;;;1.13;;
10191;SDS011;17580;50.850;4.504;2023-07-20T12:15:21;1.47;;;1.20;;
10191;SDS011;17580;50.850;4.504;2023-07-20T12:17:52;1.80;;;1.43;;
10191;SDS011;17580;50.850;4.504;2023-07-20T12:20:26;1.10;;;1.10;;
10191;SDS011;17580;50.850;4.504;2023-07-20T12:22:56;1.10;;;1.10;;
10191;SDS011;17580;50.850;4.504;2023-07-20T12:25:32;1.37;;;1.30;;
10191;SDS011;17580;50.850;4.504;2023-07-20T12:28:09;1.50;;;1.40;;
10191;SDS011;17580;50.850;4.504;2023-07-20T12:30:37;1.97;;;1.30;;
10191;SDS011;17580;50.850;4.504;2023-07-20T12:33:06;1.40;;;1.30;;
10191;SDS011;17580;50.850;4.504;2023-07-20T12:35:34;1.33;;;1.27;;
10191;SDS011;17580;50.850;4.504;2023-07-20T12:38:01;1.70;;;1.30;;
10191;SDS011;17580;50.850;4.504;2023-07-20T12:40:28;1.10;;;1.10;;
10191;SDS011;17580;50.850;4.504;2023-07-20T12:42:56;1.50;;;1.40;;
10191;SDS011;17580;50.850;4.504;2023-07-20T12:45:23;1.40;;;1.40;;
10191;SDS011;17580;50.850;4.504;2023-07-20T12:47:50;1.40;;;1.37;;
10191;SDS011;17580;50.850;4.504;2023-07-20T12:50:19;1.40;;;1.30;;
10191;SDS011;17580;50.850;4.504;2023-07-20T12:52:46;1.60;;;1.60;;
10191;SDS011;17580;50.850;4.504;2023-07-20T12:55:13;1.30;;;1.30;;
10191;SDS011;17580;50.850;4.504;2023-07-20T12:57:40;1.60;;;1.60;;
10191;SDS011;17580;50.850;4.504;2023-07-20T13:00:08;1.90;;;1.80;;
10191;SDS011;17580;50.850;4.504;2023-07-20T13:02:37;2.47;;;1.87;;
10191;SDS011;17580;50.850;4.504;2023-07-20T13:05:04;1.80;;;1.80;;
10191;SDS011;17580;50.850;4.504;2023-07-20T13:07:34;1.70;;;1.60;;
10191;SDS011;17580;50.850;4.504;2023-07-20T13:10:02;1.40;;;1.40;;
10191;SDS011;17580;50.850;4.504;2023-07-20T13:12:30;1.53;;;1.43;;
10191;SDS011;17580;50.850;4.504;2023-07-20T13:15:00;1.70;;;1.60;;
10191;SDS011;17580;50.850;4.504;2023-07-20T13:17:30;3.37;;;1.60;;
10191;SDS011;17580;50.850;4.504;2023-07-20T13:19:57;1.30;;;1.30;;
10191;SDS011;17580;50.850;4.504;2023-07-20T13:22:24;1.37;;;1.37;;
10191;SDS011;17580;50.850;4.504;2023-07-20T13:24:53;1.63;;;1.53;;
10191;SDS011;17580;50.850;4.504;2023-07-20T13:27:20;1.40;;;1.40;;
10191;SDS011;17580;50.850;4.504;2023-07-20T13:29:47;1.30;;;1.30;;
10191;SDS011;17580;50.850;4.504;2023-07-20T13:32:15;1.17;;;1.17;;
10191;SDS011;17580;50.850;4.504;2023-07-20T13:34:43;1.43;;;1.33;;
10191;SDS011;17580;50.850;4.504;2023-07-20T13:37:10;1.60;;;1.60;;
10191;SDS011;17580;50.850;4.504;2023-07-20T13:39:37;1.67;;;1.57;;
10191;SDS011;17580;50.850;4.504;2023-07-20T13:42:06;1.63;;;1.63;;
10191;SDS011;17580;50.850;4.504;2023-07-20T13:44:34;1.60;;;1.60;;
10191;SDS011;17580;50.850;4.504;2023-07-20T13:47:01;1.77;;;1.67;;
10191;SDS011;17580;50.850;4.504;2023-07-20T13:49:29;1.87;;;1.77;;
10191;SDS011;17580;50.850;4.504;2023-07-20T13:51:56;1.90;;;1.73;;
10191;SDS011;17580;50.850;4.504;2023-07-20T13:54:23;1.90;;;1.80;;
10191;SDS011;17580;50.850;4.504;2023-07-20T13:56:50;2.73;;;1.63;;
10191;SDS011;17580;50.850;4.504;2023-07-20T13:59:19;1.70;;;1.70;;
10191;SDS011;17580;50.850;4.504;2023-07-20T14:01:46;1.53;;;1.50;;
10191;SDS011;17580;50.850;4.504;2023-07-20T14:04:13;1.50;;;1.40;;
10191;SDS011;17580;50.850;4.504;2023-07-20T14:06:40;1.87;;;1.87;;
10191;SDS011;17580;50.850;4.504;2023-07-20T14:09:07;1.40;;;1.33;;
10191;SDS011;17580;50.850;4.504;2023-07-20T14:11:34;1.57;;;1.47;;
10191;SDS011;17580;50.850;4.504;2023-07-20T14:14:01;1.43;;;1.40;;
10191;SDS011;17580;50.850;4.504;2023-07-20T14:16:29;1.20;;;1.20;;
10191;SDS011;17580;50.850;4.504;2023-07-20T14:18:57;1.60;;;1.50;;
10191;SDS011;17580;50.850;4.504;2023-07-20T14:21:24;1.47;;;1.37;;
10191;SDS011;17580;50.850;4.504;2023-07-20T14:23:52;1.50;;;1.40;;
10191;SDS011;17580;50.850;4.504;2023-07-20T14:26:19;1.03;;;1.03;;
10191;SDS011;17580;50.850;4.504;2023-07-20T14:28:46;1.50;;;1.40;;
10191;SDS011;17580;50.850;4.504;2023-07-20T14:31:13;1.37;;;1.27;;
10191;SDS011;17580;50.850;4.504;2023-07-20T14:33:42;1.17;;;1.17;;
10191;SDS011;17580;50.850;4.504;2023-07-20T14:36:09;1.60;;;1.50;;
10191;SDS011;17580;50.850;4.504;2023-07-20T14:38:36;1.30;;;1.30;;
10191;SDS011;17580;50.850;4.504;2023-07-20T14:41:03;1.40;;;1.40;;
10191;SDS011;17580;50.850;4.504;2023-07-20T14:43:30;1.47;;;1.37;;
10191;SDS011;17580;50.850;4.504;2023-07-20T14:45:57;1.67;;;1.57;;
10191;SDS011;17580;50.850;4.504;2023-07-20T14:48:24;1.87;;;1.17;;
10191;SDS011;17580;50.850;4.504;2023-07-20T14:50:53;2.10;;;1.43;;
10191;SDS011;17580;50.850;4.504;2023-07-20T14:53:20;1.30;;;1.30;;
10191;SDS011;17580;50.850;4.504;2023-07-20T14:55:47;1.47;;;1.40;;
10191;SDS011;17580;50.850;4.504;2023-07-20T14:58:14;3.00;;;1.30;;
10191;SDS011;17580;50.850;4.504;2023-07-20T15:00:41;1.50;;;1.47;;
10191;SDS011;17580;50.850;4.504;2023-07-20T15:03:08;1.57;;;1.47;;